Terminal Aerodrome Forecast
Issued by NWS

Home | Current Version | Previous Version | Text Only | Print | Product List | Glossary On
Versions: 1 2 3 4 5 6 7 8 9 10 11 12 13 14 15
000
FTUS44 KLIX 042329
TAFMCB
TAF
KMCB 042329Z 0500/0524 17004KT P6SM -RA SCT100
     FM050300 31005KT P6SM VCTS BKN090CB
     FM050600 VRB03KT P6SM BKN200
     FM051200 00000KT P6SM BKN080
      TEMPO 0514/0518 4SM SHRA
     FM052000 20006KT P6SM SCT040=

USA.gov is the U.S. government's official web portal to all federal, state and local government web resources and services.